createdAt,value
2018-12-29T00:08:41.086Z,2.96
2018-12-29T00:13:59.551Z,2.97
2018-12-29T00:19:18.315Z,2.98
2018-12-29T00:24:36.792Z,3.02
2018-12-29T00:29:55.257Z,2.96
2018-12-29T00:35:13.936Z,2.96
2018-12-29T00:40:32.467Z,2.91
2018-12-29T00:45:50.939Z,2.84
2018-12-29T00:51:09.623Z,2.80
2018-12-29T00:56:28.157Z,2.84
2018-12-29T01:01:46.691Z,2.87
2018-12-29T01:12:36.619Z,2.83
2018-12-29T01:23:25.609Z,2.80
2018-12-29T01:28:44.089Z,2.81
2018-12-29T01:34:02.582Z,2.87
2018-12-29T01:39:21.067Z,2.93
2018-12-29T01:44:39.531Z,2.93
2018-12-29T01:49:58.012Z,2.85
2018-12-29T01:55:16.495Z,2.80
2018-12-29T02:00:35.044Z,2.87
2018-12-29T02:05:53.556Z,2.76
2018-12-29T02:11:12.039Z,2.77
2018-12-29T02:16:30.517Z,2.82
2018-12-29T02:21:49.064Z,2.89
2018-12-29T02:27:07.605Z,2.82
2018-12-29T02:37:58.537Z,2.81
2018-12-29T02:43:17.022Z,2.85
2018-12-29T02:48:35.487Z,2.95
2018-12-29T02:53:53.968Z,2.97
2018-12-29T02:59:12.858Z,2.95
2018-12-29T03:04:31.380Z,2.94
2018-12-29T03:09:49.858Z,2.95
2018-12-29T03:15:08.446Z,2.99
2018-12-29T03:20:26.917Z,3.02
2018-12-29T03:25:45.394Z,3.04
2018-12-29T03:31:03.936Z,3.09
2018-12-29T03:36:22.416Z,3.08
2018-12-29T03:41:40.955Z,3.02
2018-12-29T03:46:59.420Z,3.08
2018-12-29T03:52:18.034Z,3.06
2018-12-29T03:57:36.515Z,3.05
2018-12-29T04:02:54.985Z,3.09
2018-12-29T04:08:13.455Z,3.03
2018-12-29T04:13:32.389Z,3.07
2018-12-29T04:18:50.843Z,3.07
2018-12-29T04:24:09.661Z,3.18
2018-12-29T04:29:47.464Z,3.16
2018-12-29T04:35:06.080Z,3.16
2018-12-29T04:40:24.910Z,3.24
2018-12-29T04:51:15.837Z,3.25
2018-12-29T04:56:34.297Z,3.15
2018-12-29T05:01:52.764Z,3.22
2018-12-29T05:07:11.239Z,3.25
2018-12-29T05:12:29.858Z,3.28
2018-12-29T05:17:48.322Z,3.33
2018-12-29T05:23:06.806Z,3.32
2018-12-29T05:28:25.303Z,3.41
2018-12-29T05:33:43.767Z,3.32
2018-12-29T05:39:02.270Z,3.36
2018-12-29T05:44:20.733Z,3.35
2018-12-29T05:49:39.315Z,3.34
2018-12-29T06:00:30.231Z,3.40
2018-12-29T06:05:48.708Z,3.39
2018-12-29T06:11:07.172Z,3.37
2018-12-29T06:16:27.892Z,3.37
2018-12-29T06:21:45.900Z,3.38
2018-12-29T06:27:04.834Z,3.45
2018-12-29T06:32:23.297Z,3.45
2018-12-29T06:37:41.845Z,3.43
2018-12-29T06:43:00.315Z,3.85
2018-12-29T06:48:18.831Z,3.58
2018-12-29T06:53:37.618Z,3.51
2018-12-29T06:58:56.213Z,3.45
2018-12-29T07:04:14.627Z,3.52
2018-12-29T07:09:33.112Z,3.56
2018-12-29T07:14:51.742Z,3.56
2018-12-29T07:20:10.226Z,3.49
2018-12-29T07:25:28.703Z,3.49
2018-12-29T07:30:47.457Z,3.56
2018-12-29T07:36:05.927Z,3.51
2018-12-29T07:41:24.463Z,3.51
2018-12-29T07:46:49.399Z,3.64
2018-12-29T07:52:03.280Z,3.60
2018-12-29T07:57:21.755Z,3.65
2018-12-29T08:02:40.303Z,3.58
2018-12-29T08:07:58.844Z,3.68
2018-12-29T08:13:17.309Z,3.71
2018-12-29T08:18:35.777Z,3.70
2018-12-29T08:23:54.327Z,3.74
2018-12-29T08:29:12.816Z,3.80
2018-12-29T08:34:31.407Z,3.76
2018-12-29T08:39:49.955Z,3.83
2018-12-29T08:50:38.948Z,3.93
2018-12-29T08:55:57.579Z,4.00
2018-12-29T09:01:16.087Z,4.02
2018-12-29T09:12:07.142Z,4.01
2018-12-29T09:17:25.611Z,4.02
2018-12-29T09:22:44.449Z,4.00
2018-12-29T09:28:02.936Z,4.11
2018-12-29T09:33:21.477Z,4.14
2018-12-29T09:38:39.987Z,4.10
2018-12-29T09:43:58.498Z,4.19
2018-12-29T09:54:47.417Z,4.23
2018-12-29T10:00:46.219Z,4.22
2018-12-29T10:06:04.713Z,4.26
2018-12-29T10:11:23.255Z,4.28
2018-12-29T10:16:41.731Z,4.37
2018-12-29T10:22:00.277Z,4.46
2018-12-29T10:27:18.933Z,4.48
2018-12-29T10:32:37.405Z,4.61
2018-12-29T10:37:55.883Z,4.60
2018-12-29T10:43:14.395Z,4.64
2018-12-29T10:48:32.875Z,4.76
2018-12-29T10:53:51.565Z,4.85
2018-12-29T10:59:10.062Z,4.86
2018-12-29T11:04:28.548Z,4.82
2018-12-29T11:09:47.025Z,4.91
2018-12-29T11:15:05.871Z,4.99
2018-12-29T11:20:24.530Z,4.96
2018-12-29T11:31:15.589Z,5.13
2018-12-29T11:42:04.582Z,5.21
2018-12-29T11:47:23.359Z,5.20
2018-12-29T11:52:41.850Z,5.23
2018-12-29T11:58:00.391Z,5.19
2018-12-29T12:03:38.586Z,5.26
2018-12-29T12:14:29.514Z,5.35
2018-12-29T12:19:47.996Z,5.39
2018-12-29T12:25:06.606Z,5.49
2018-12-29T12:30:25.222Z,5.51
2018-12-29T12:35:59.567Z,5.61
2018-12-29T12:41:04.331Z,5.69
2018-12-29T12:57:43.233Z,5.79
2018-12-29T13:08:35.794Z,5.80
2018-12-29T13:13:54.283Z,5.95
2018-12-29T13:19:12.747Z,5.98
2018-12-29T13:24:31.222Z,5.97
2018-12-29T13:35:39.546Z,5.91
2018-12-29T13:40:58.054Z,5.91
2018-12-29T13:46:16.598Z,5.93
2018-12-29T13:51:35.140Z,5.94
2018-12-29T14:02:26.208Z,5.99
2018-12-29T14:07:58.587Z,5.95
2018-12-29T14:13:17.261Z,5.84
2018-12-29T14:18:35.811Z,5.76
2018-12-29T14:23:54.287Z,5.80
2018-12-29T14:34:43.213Z,5.59
2018-12-29T14:40:01.694Z,5.57
2018-12-29T14:45:21.878Z,5.57
2018-12-29T14:50:59.755Z,5.59
2018-12-29T14:56:18.241Z,5.62
2018-12-29T15:01:36.691Z,5.60
2018-12-29T15:06:55.298Z,5.54
2018-12-29T15:12:14.086Z,5.61
2018-12-29T15:17:32.573Z,5.59
2018-12-29T15:22:52.777Z,5.62
2018-12-29T15:28:11.334Z,5.55
2018-12-29T15:34:11.531Z,5.63
2018-12-29T15:39:32.048Z,5.60
2018-12-29T15:44:50.519Z,5.58
2018-12-29T15:55:41.709Z,5.60
2018-12-29T16:01:01.913Z,5.54
2018-12-29T16:06:20.381Z,5.58
2018-12-29T16:17:11.539Z,5.59
2018-12-29T16:22:29.992Z,5.62
2018-12-29T16:27:48.480Z,5.61
2018-12-29T16:33:07.359Z,5.59
2018-12-29T16:38:45.213Z,5.55
2018-12-29T16:44:03.912Z,5.57
2018-12-29T16:49:43.449Z,5.55
2018-12-29T16:55:01.992Z,5.55
2018-12-29T17:00:20.976Z,5.58
2018-12-29T17:05:52.136Z,5.59
2018-12-29T17:16:32.473Z,5.66
2018-12-29T17:21:51.211Z,5.67
2018-12-29T17:27:09.728Z,5.72
2018-12-29T17:32:28.270Z,5.67
2018-12-29T17:37:46.779Z,5.67
2018-12-29T17:48:37.818Z,5.80
2018-12-29T17:53:57.105Z,5.80
2018-12-29T17:59:17.507Z,5.88
2018-12-29T18:10:41.875Z,5.97
2018-12-29T18:15:47.911Z,5.96
2018-12-29T18:21:06.444Z,5.98
2018-12-29T18:31:57.172Z,6.04
2018-12-29T18:37:15.648Z,6.18
2018-12-29T18:48:04.614Z,6.24
2018-12-29T18:53:23.347Z,6.26
2018-12-29T18:58:41.872Z,6.28
2018-12-29T19:04:00.487Z,6.36
2018-12-29T19:09:18.970Z,6.43
2018-12-29T19:14:37.513Z,6.48
2018-12-29T19:19:56.045Z,6.55
2018-12-29T19:25:14.528Z,6.65
2018-12-29T19:36:05.735Z,6.85
2018-12-29T19:41:24.211Z,6.87
2018-12-29T19:46:44.509Z,6.98
2018-12-29T19:52:04.854Z,7.00
2018-12-29T19:57:23.442Z,7.01
2018-12-29T20:02:41.994Z,7.15
2018-12-29T20:08:02.350Z,7.20
2018-12-29T20:13:21.072Z,7.28
2018-12-29T20:18:39.561Z,7.34
2018-12-29T20:23:58.093Z,7.36
2018-12-29T20:29:16.573Z,7.44
2018-12-29T20:40:45.587Z,7.50
2018-12-29T20:46:04.377Z,7.54
2018-12-29T20:51:23.173Z,7.61
2018-12-29T20:56:43.245Z,7.67
2018-12-29T21:02:01.778Z,7.74
2018-12-29T21:12:50.690Z,7.76
2018-12-29T21:18:09.257Z,7.76
2018-12-29T21:23:27.720Z,7.78
2018-12-29T21:40:45.655Z,7.78
2018-12-29T21:46:04.436Z,7.78
2018-12-29T21:51:23.548Z,7.77
2018-12-29T21:56:42.124Z,7.75
2018-12-29T22:02:00.660Z,7.68
2018-12-29T22:12:51.652Z,7.54
2018-12-29T22:18:10.196Z,7.50
2018-12-29T22:23:28.664Z,7.53
2018-12-29T22:28:47.207Z,7.42
2018-12-29T22:34:05.667Z,7.44
2018-12-29T22:39:24.138Z,7.47
2018-12-29T22:44:42.686Z,7.58
2018-12-29T22:50:01.182Z,7.58
2018-12-29T22:55:19.719Z,7.52
2018-12-29T23:11:40.853Z,7.45
2018-12-29T23:16:59.396Z,7.42
2018-12-29T23:22:17.866Z,7.40
2018-12-29T23:27:36.337Z,7.40
2018-12-29T23:32:54.800Z,7.35
2018-12-29T23:43:45.356Z,7.36
2018-12-29T23:49:03.923Z,7.33
2018-12-29T23:59:52.898Z,7.29
